createdAt,value
2019-05-11T00:00:55.201Z,97163.08
2019-05-11T00:03:24.965Z,97160.45
2019-05-11T00:05:55.204Z,97157.27
2019-05-11T00:08:26.533Z,97167.75
2019-05-11T00:10:54.863Z,97162.73
2019-05-11T00:13:25.311Z,97153.53
2019-05-11T00:15:55.339Z,97134.27
2019-05-11T00:18:25.520Z,97133.55
2019-05-11T00:20:55.477Z,97126.78
2019-05-11T00:23:26.584Z,97124.31
2019-05-11T00:25:56.872Z,97119.09
2019-05-11T00:28:26.890Z,97115.77
2019-05-11T00:30:57.319Z,97105.61
2019-05-11T00:33:27.081Z,97105.44
2019-05-11T00:35:57.552Z,97105.69
2019-05-11T00:38:28.880Z,97099.50
2019-05-11T00:40:59.195Z,97101.41
2019-05-11T00:43:29.238Z,97100.05
2019-05-11T00:45:59.967Z,97093.07
2019-05-11T00:48:29.764Z,97089.66
2019-05-11T00:50:58.123Z,97076.80
2019-05-11T00:53:27.693Z,97069.86
2019-05-11T00:55:57.754Z,97072.23
2019-05-11T00:58:27.946Z,97065.12
2019-05-11T01:00:58.175Z,97059.63
2019-05-11T01:03:27.935Z,97053.13
2019-05-11T01:05:58.260Z,97049.08
2019-05-11T01:08:28.598Z,97038.95
2019-05-11T01:10:58.859Z,97045.28
2019-05-11T01:13:28.868Z,97030.36
2019-05-11T01:15:59.044Z,97029.19
2019-05-11T01:18:27.327Z,97032.20
2019-05-11T01:20:57.563Z,97023.05
2019-05-11T01:23:27.332Z,97014.10
2019-05-11T01:25:57.898Z,97020.59
2019-05-11T01:28:27.961Z,97031.61
2019-05-11T01:30:58.226Z,97028.36
2019-05-11T01:33:27.418Z,97017.73
2019-05-11T01:35:58.044Z,97019.80
2019-05-11T01:38:28.343Z,97009.67
2019-05-11T01:40:59.342Z,97005.95
2019-05-11T01:43:28.940Z,97002.39
2019-05-11T01:45:59.431Z,97002.45
2019-05-11T01:48:29.872Z,97006.42
2019-05-11T01:50:59.358Z,96996.20
2019-05-11T01:53:29.116Z,97005.39
2019-05-11T01:55:59.204Z,97003.48
2019-05-11T01:58:30.059Z,97005.48
2019-05-11T02:01:00.308Z,97013.02
2019-05-11T02:03:30.640Z,97018.09
2019-05-11T02:06:00.913Z,97019.84
2019-05-11T02:08:30.947Z,97011.45
2019-05-11T02:11:14.814Z,97016.59
2019-05-11T02:13:53.212Z,97008.22
2019-05-11T02:16:23.287Z,97007.75
2019-05-11T02:18:53.740Z,96998.45
2019-05-11T02:21:23.751Z,96999.00
2019-05-11T02:23:54.055Z,97004.87
2019-05-11T02:26:24.150Z,97001.79
2019-05-11T02:28:52.936Z,97001.88
2019-05-11T02:31:23.580Z,96992.25
2019-05-11T02:33:53.737Z,96978.69
2019-05-11T02:36:24.020Z,96965.59
2019-05-11T02:38:54.366Z,96950.21
2019-05-11T02:41:35.297Z,96948.38
2019-05-11T02:43:55.149Z,96948.38
2019-05-11T02:46:25.079Z,96950.92
2019-05-11T02:48:54.651Z,96945.45
2019-05-11T02:51:25.039Z,96952.87
2019-05-11T02:53:55.827Z,96954.05
2019-05-11T02:56:24.879Z,96941.36
2019-05-11T02:58:55.345Z,96943.27
2019-05-11T03:01:25.110Z,96938.50
2019-05-11T03:03:55.289Z,96951.58
2019-05-11T03:06:25.394Z,96950.80
2019-05-11T03:08:55.260Z,96953.17
2019-05-11T03:11:25.487Z,96947.19
2019-05-11T03:13:54.875Z,96955.63
2019-05-11T03:16:25.427Z,96949.33
2019-05-11T03:18:55.520Z,96953.38
2019-05-11T03:21:23.994Z,96942.59
2019-05-11T03:23:54.298Z,96934.48
2019-05-11T03:26:25.995Z,96932.82
2019-05-11T03:28:56.095Z,96927.54
2019-05-11T03:31:26.600Z,96920.66
2019-05-11T03:33:56.727Z,96932.59
2019-05-11T03:36:25.880Z,96931.95
2019-05-11T03:38:55.844Z,96921.31
2019-05-11T03:41:25.967Z,96927.50
2019-05-11T03:43:55.908Z,96933.27
2019-05-11T03:46:26.135Z,96937.55
2019-05-11T03:48:56.345Z,96938.13
2019-05-11T03:51:26.542Z,96938.42
2019-05-11T03:53:56.882Z,96927.89
2019-05-11T03:56:27.350Z,96935.16
2019-05-11T03:58:57.297Z,96946.30
2019-05-11T04:01:27.990Z,96939.69
2019-05-11T04:03:57.831Z,96929.22
2019-05-11T04:06:48.173Z,96931.05
2019-05-11T04:09:18.287Z,96932.79
2019-05-11T04:11:48.771Z,96931.33
2019-05-11T04:14:38.883Z,96922.84
2019-05-11T04:17:09.164Z,96921.17
2019-05-11T04:19:58.525Z,96927.28
2019-05-11T04:22:29.907Z,96920.70
2019-05-11T04:24:59.849Z,96915.62
2019-05-11T04:27:30.283Z,96916.81
2019-05-11T04:30:00.105Z,96916.84
2019-05-11T04:32:28.403Z,96918.52
2019-05-11T04:34:58.487Z,96916.13
2019-05-11T04:37:29.347Z,96920.47
2019-05-11T04:40:19.618Z,96917.37
2019-05-11T04:42:55.763Z,96921.96
2019-05-11T04:45:21.577Z,96919.84
2019-05-11T04:47:52.403Z,96921.63
2019-05-11T04:50:23.184Z,96916.44
2019-05-11T04:52:53.705Z,96917.83
2019-05-11T04:55:23.743Z,96922.08
2019-05-11T04:57:55.916Z,96921.64
2019-05-11T05:00:27.367Z,96929.71
2019-05-11T05:02:58.017Z,96927.52
2019-05-11T05:05:28.339Z,96930.27
2019-05-11T05:08:09.249Z,96930.97
2019-05-11T05:10:31.096Z,96919.14
2019-05-11T05:13:10.299Z,96919.42
2019-05-11T05:15:33.291Z,96919.48
2019-05-11T05:18:03.752Z,96907.93
2019-05-11T05:20:33.874Z,96914.03
2019-05-11T05:23:04.225Z,96928.98
2019-05-11T05:25:34.163Z,96936.31
2019-05-11T05:28:04.472Z,96937.67
2019-05-11T05:30:34.478Z,96936.69
2019-05-11T05:33:05.009Z,96932.92
2019-05-11T05:35:35.002Z,96938.16
2019-05-11T05:38:05.188Z,96945.37
2019-05-11T05:40:35.244Z,96946.63
2019-05-11T05:43:03.527Z,96947.52
2019-05-11T05:45:33.813Z,96943.46
2019-05-11T05:48:02.275Z,96938.66
2019-05-11T05:50:32.921Z,96942.72
2019-05-11T05:53:03.030Z,96952.32
2019-05-11T05:55:33.280Z,96948.12
2019-05-11T05:58:06.012Z,96947.11
2019-05-11T06:00:36.326Z,96944.54
2019-05-11T06:03:05.051Z,96949.52
2019-05-11T06:05:35.346Z,96956.52
2019-05-11T06:08:05.690Z,96963.97
2019-05-11T06:10:36.558Z,96959.08
2019-05-11T06:13:05.546Z,96955.72
2019-05-11T06:15:35.856Z,96952.23
2019-05-11T06:18:06.157Z,96948.78
2019-05-11T06:20:37.262Z,96941.17
2019-05-11T06:23:06.972Z,96956.14
2019-05-11T06:25:36.026Z,96962.38
2019-05-11T06:28:06.159Z,96962.61
2019-05-11T06:30:36.402Z,96966.57
2019-05-11T06:33:06.267Z,96974.26
2019-05-11T06:35:38.078Z,96961.75
2019-05-11T06:38:09.585Z,96954.86
2019-05-11T06:40:39.892Z,96963.62
2019-05-11T06:43:10.249Z,96959.95
2019-05-11T06:45:40.370Z,96960.07
2019-05-11T06:48:11.853Z,96960.56
2019-05-11T06:51:02.859Z,96955.72
2019-05-11T06:53:32.828Z,96962.61
2019-05-11T06:56:02.956Z,96961.24
2019-05-11T06:58:31.919Z,96958.06
2019-05-11T07:01:01.702Z,96958.28
2019-05-11T07:03:30.548Z,96960.99
2019-05-11T07:06:00.958Z,96967.47
2019-05-11T07:08:30.519Z,96965.29
2019-05-11T07:11:00.367Z,96961.93
2019-05-11T07:13:30.728Z,96963.48
2019-05-11T07:16:00.637Z,96960.39
2019-05-11T07:18:29.934Z,96963.89
2019-05-11T07:20:59.818Z,96972.64
2019-05-11T07:23:30.207Z,96985.21
2019-05-11T07:26:00.300Z,96961.75
2019-05-11T07:28:32.022Z,96970.85
2019-05-11T07:31:01.741Z,96975.09
2019-05-11T07:33:32.149Z,96964.12
2019-05-11T07:36:02.692Z,96953.05
2019-05-11T07:38:32.140Z,96962.16
2019-05-11T07:41:02.442Z,96967.18
2019-05-11T07:43:32.739Z,96961.36
2019-05-11T07:46:03.451Z,96958.20
2019-05-11T07:48:34.406Z,96954.95
2019-05-11T07:51:04.780Z,96971.57
2019-05-11T07:53:34.940Z,96953.72
2019-05-11T07:56:05.317Z,96946.48
2019-05-11T07:58:35.747Z,96948.69
2019-05-11T08:01:08.480Z,96956.12
2019-05-11T08:03:38.840Z,96952.89
2019-05-11T08:06:09.010Z,96949.74
2019-05-11T08:08:41.746Z,96957.12
2019-05-11T08:11:12.065Z,96959.36
2019-05-11T08:13:42.037Z,96950.07
2019-05-11T08:16:12.125Z,96960.91
2019-05-11T08:18:42.327Z,96966.19
2019-05-11T08:21:12.924Z,96970.35
2019-05-11T08:23:42.475Z,96963.69
2019-05-11T08:26:13.549Z,96963.25
2019-05-11T08:28:43.597Z,96963.67
2019-05-11T08:31:14.031Z,96965.31
2019-05-11T08:33:43.908Z,96958.42
2019-05-11T08:36:12.935Z,96960.27
2019-05-11T08:38:41.234Z,96951.94
2019-05-11T08:41:09.648Z,96961.71
2019-05-11T08:43:38.883Z,96961.05
2019-05-11T08:46:08.161Z,96969.08
2019-05-11T08:48:38.624Z,96959.47
2019-05-11T08:51:08.437Z,96974.05
2019-05-11T08:53:38.764Z,96977.69
2019-05-11T08:56:11.139Z,96970.77
2019-05-11T08:58:38.120Z,96978.38
2019-05-11T09:01:08.781Z,96984.96
2019-05-11T09:03:38.700Z,96996.28
2019-05-11T09:06:08.441Z,97020.66
2019-05-11T09:08:38.829Z,97014.03
2019-05-11T09:11:08.429Z,97011.77
2019-05-11T09:13:39.204Z,97014.94
2019-05-11T09:16:07.898Z,97011.43
2019-05-11T09:18:38.571Z,97008.13
2019-05-11T09:21:08.308Z,97006.45
2019-05-11T09:23:39.944Z,97016.66
2019-05-11T09:26:08.789Z,97017.58
2019-05-11T09:28:38.425Z,97021.30
2019-05-11T09:31:08.515Z,97019.16
2019-05-11T09:33:38.628Z,97019.53
2019-05-11T09:36:08.499Z,97036.19
2019-05-11T09:38:38.531Z,97039.27
2019-05-11T09:41:08.949Z,97047.98
2019-05-11T09:43:37.718Z,97047.87
2019-05-11T09:46:08.362Z,97051.37
2019-05-11T09:48:37.809Z,97029.59
2019-05-11T09:51:07.856Z,97028.51
2019-05-11T09:53:38.762Z,97036.77
2019-05-11T09:56:28.758Z,97032.49
2019-05-11T09:58:58.142Z,97028.44
2019-05-11T10:01:26.659Z,97017.42
2019-05-11T10:03:57.896Z,97011.92
2019-05-11T10:06:28.166Z,97012.85
2019-05-11T10:08:57.921Z,97003.59
2019-05-11T10:11:28.212Z,97013.66
2019-05-11T10:13:57.764Z,97015.09
2019-05-11T10:16:28.035Z,97013.59
2019-05-11T10:18:56.324Z,97005.13
2019-05-11T10:21:24.660Z,97004.33
2019-05-11T10:23:53.071Z,96996.20
2019-05-11T10:26:21.453Z,97000.44
2019-05-11T10:28:51.572Z,97003.41
2019-05-11T10:31:20.382Z,97018.48
2019-05-11T10:33:49.268Z,97024.87
2019-05-11T10:36:18.952Z,97023.54
2019-05-11T10:38:48.789Z,97029.95
2019-05-11T10:41:18.350Z,97035.18
2019-05-11T10:43:48.905Z,97030.67
2019-05-11T10:46:22.915Z,97040.85
2019-05-11T10:48:48.155Z,97040.36
2019-05-11T10:51:18.344Z,97021.18
2019-05-11T10:53:52.049Z,97026.08
2019-05-11T10:56:21.443Z,97016.25
2019-05-11T10:58:49.933Z,97026.20
2019-05-11T11:01:18.405Z,97026.39
2019-05-11T11:03:48.340Z,97029.91
2019-05-11T11:06:18.815Z,97024.09
2019-05-11T11:08:48.678Z,97026.91
2019-05-11T11:11:19.441Z,97017.03
2019-05-11T11:13:48.877Z,97025.48
2019-05-11T11:16:35.089Z,97025.75
2019-05-11T11:18:48.869Z,97033.19
2019-05-11T11:21:22.622Z,97025.77
2019-05-11T11:23:50.286Z,97036.81
2019-05-11T11:26:20.416Z,97039.39
2019-05-11T11:28:50.304Z,97038.17
2019-05-11T11:31:19.477Z,97029.81
2019-05-11T11:33:48.886Z,97032.50
2019-05-11T11:36:19.156Z,97038.47
2019-05-11T11:38:48.494Z,97036.89
2019-05-11T11:41:18.588Z,97039.72
2019-05-11T11:43:48.271Z,97041.22
2019-05-11T11:46:18.837Z,97045.27
2019-05-11T11:48:48.934Z,97036.37
2019-05-11T11:51:18.743Z,97039.89
2019-05-11T11:53:48.039Z,97043.71
2019-05-11T11:56:18.894Z,97043.45
2019-05-11T11:58:48.848Z,97058.16
2019-05-11T12:01:18.975Z,97048.64
2019-05-11T12:03:48.722Z,97054.05
2019-05-11T12:06:18.211Z,97062.56
2019-05-11T12:08:49.792Z,97056.34
2019-05-11T12:11:18.644Z,97051.60
2019-05-11T12:13:47.782Z,97045.84
2019-05-11T12:16:18.045Z,97050.13
2019-05-11T12:19:05.347Z,97053.72
2019-05-11T12:21:34.017Z,97045.55
2019-05-11T12:24:02.434Z,97036.19
2019-05-11T12:26:30.921Z,97050.76
2019-05-11T12:29:00.266Z,97053.37
2019-05-11T12:31:32.374Z,97052.86
2019-05-11T12:33:58.813Z,97055.62
2019-05-11T12:36:28.107Z,97048.47
2019-05-11T12:39:03.556Z,97039.07
2019-05-11T12:41:31.909Z,97038.83
2019-05-11T12:44:00.993Z,97039.41
2019-05-11T12:46:30.265Z,97035.03
2019-05-11T12:49:01.483Z,97034.72
2019-05-11T12:51:29.985Z,97032.52
2019-05-11T12:53:58.916Z,97027.02
2019-05-11T12:56:27.842Z,97011.67
2019-05-11T12:58:58.243Z,97005.92
2019-05-11T13:01:28.907Z,97018.36
2019-05-11T13:03:58.032Z,97023.08
2019-05-11T13:07:03.308Z,97026.80
2019-05-11T13:09:33.456Z,97018.71
2019-05-11T13:12:02.972Z,97019.94
2019-05-11T13:14:32.377Z,97021.06
2019-05-11T13:17:01.311Z,97033.94
2019-05-11T13:19:29.802Z,97054.33
2019-05-11T13:21:59.005Z,97042.59
2019-05-11T13:24:28.229Z,97034.43
2019-05-11T13:26:59.599Z,97025.48
2019-05-11T13:29:28.696Z,97035.13
2019-05-11T13:31:59.038Z,97032.40
2019-05-11T13:34:31.239Z,97035.91
2019-05-11T13:36:57.602Z,97049.36
2019-05-11T13:39:25.863Z,97064.38
2019-05-11T13:41:54.403Z,97090.32
2019-05-11T13:44:24.400Z,97113.05
2019-05-11T13:46:52.806Z,97117.36
2019-05-11T13:49:21.344Z,97142.64
2019-05-11T13:51:49.678Z,97146.03
2019-05-11T13:54:18.728Z,97151.72
2019-05-11T13:56:48.371Z,97134.75
2019-05-11T13:59:18.850Z,97140.69
2019-05-11T14:01:48.103Z,97150.25
2019-05-11T14:04:18.216Z,97153.66
2019-05-11T14:06:48.169Z,97155.24
2019-05-11T14:09:18.521Z,97145.34
2019-05-11T14:11:48.024Z,97138.02
2019-05-11T14:14:18.456Z,97131.38
2019-05-11T14:16:48.550Z,97141.21
2019-05-11T14:19:17.969Z,97149.70
2019-05-11T14:21:48.786Z,97165.05
2019-05-11T14:24:18.378Z,97154.86
2019-05-11T14:26:48.782Z,97150.11
2019-05-11T14:29:19.164Z,97149.79
2019-05-11T14:31:49.391Z,97143.80
2019-05-11T14:34:19.195Z,97147.43
2019-05-11T14:36:48.471Z,97152.61
2019-05-11T14:39:19.012Z,97153.75
2019-05-11T14:41:48.768Z,97157.95
2019-05-11T14:44:18.151Z,97169.78
2019-05-11T14:46:47.830Z,97186.60
2019-05-11T14:49:18.425Z,97202.47
2019-05-11T14:51:48.557Z,97194.02
2019-05-11T14:54:18.848Z,97194.56
2019-05-11T14:56:48.178Z,97196.49
2019-05-11T14:59:18.425Z,97206.48
2019-05-11T15:01:49.025Z,97212.03
2019-05-11T15:11:48.161Z,97234.48
2019-05-11T15:14:19.695Z,97275.81
2019-05-11T15:16:48.634Z,97279.79
2019-05-11T15:19:18.543Z,97287.81
2019-05-11T15:21:47.581Z,97301.22
2019-05-11T15:24:18.290Z,97304.39
2019-05-11T15:26:48.542Z,97290.70
2019-05-11T15:29:18.691Z,97296.66
2019-05-11T15:31:48.576Z,97312.64
2019-05-11T15:34:18.593Z,97314.09
2019-05-11T15:36:49.154Z,97320.86
2019-05-11T15:39:18.412Z,97328.01
2019-05-11T15:41:48.019Z,97330.52
2019-05-11T15:44:18.575Z,97346.91
2019-05-11T15:46:47.989Z,97354.41
2019-05-11T15:49:18.001Z,97360.03
2019-05-11T15:51:48.844Z,97362.84
2019-05-11T15:54:18.673Z,97365.77
2019-05-11T15:56:47.757Z,97353.72
2019-05-11T15:59:16.106Z,97349.55
2019-05-11T16:01:48.754Z,97347.95
2019-05-11T16:04:18.077Z,97356.97
2019-05-11T16:06:46.688Z,97357.28
2019-05-11T16:09:18.874Z,97358.08
2019-05-11T16:11:47.861Z,97363.86
2019-05-11T16:14:16.344Z,97368.52
2019-05-11T16:16:44.856Z,97368.09
2019-05-11T16:19:15.108Z,97377.84
2019-05-11T16:21:43.292Z,97376.64
2019-05-11T16:24:11.597Z,97381.58
2019-05-11T16:26:40.697Z,97379.41
2019-05-11T16:29:11.440Z,97384.45
2019-05-11T16:31:40.068Z,97384.25
2019-05-11T16:34:08.362Z,97390.77
2019-05-11T16:36:38.966Z,97388.02
2019-05-11T16:39:10.029Z,97391.58
2019-05-11T16:41:38.207Z,97392.55
2019-05-11T16:44:07.940Z,97398.53
2019-05-11T16:46:38.698Z,97398.36
2019-05-11T16:49:06.557Z,97405.22
2019-05-11T16:51:35.004Z,97412.21
2019-05-11T16:54:03.465Z,97424.06
2019-05-11T16:56:31.807Z,97436.25
2019-05-11T16:59:00.432Z,97446.23
2019-05-11T17:01:29.038Z,97446.80
2019-05-11T17:03:57.923Z,97447.85
2019-05-11T17:06:28.542Z,97450.30
2019-05-11T17:08:58.030Z,97462.06
2019-05-11T17:11:28.803Z,97465.30
2019-05-11T17:13:57.567Z,97476.84
2019-05-11T17:16:28.367Z,97489.94
2019-05-11T17:18:58.412Z,97495.98
2019-05-11T17:21:29.245Z,97506.98
2019-05-11T17:23:57.934Z,97517.54
2019-05-11T17:26:27.876Z,97520.12
2019-05-11T17:28:58.164Z,97540.91
2019-05-11T17:31:26.340Z,97554.70
2019-05-11T17:33:55.285Z,97566.08
2019-05-11T17:36:23.677Z,97574.72
2019-05-11T17:38:52.106Z,97588.55
2019-05-11T17:41:20.836Z,97596.64
2019-05-11T17:43:49.609Z,97595.14
2019-05-11T17:46:18.582Z,97583.79
2019-05-11T17:48:47.305Z,97595.45
2019-05-11T17:51:21.752Z,97605.91
2019-05-11T17:53:48.096Z,97615.42
2019-05-11T17:56:16.017Z,97616.55
2019-05-11T17:58:44.316Z,97623.19
2019-05-11T18:01:12.716Z,97629.92
2019-05-11T18:03:41.081Z,97617.34
2019-05-11T18:06:09.459Z,97632.52
2019-05-11T18:08:37.823Z,97638.36
2019-05-11T18:11:08.402Z,97636.75
2019-05-11T18:13:39.043Z,97643.97
2019-05-11T18:16:08.510Z,97664.73
2019-05-11T18:18:37.867Z,97659.69
2019-05-11T18:21:08.512Z,97668.20
2019-05-11T18:23:38.573Z,97668.55
2019-05-11T18:26:08.659Z,97680.47
2019-05-11T18:28:37.813Z,97685.47
2019-05-11T18:31:06.696Z,97682.43
2019-05-11T18:33:35.046Z,97686.14
2019-05-11T18:36:03.392Z,97710.03
2019-05-11T18:38:32.001Z,97706.32
2019-05-11T18:41:09.618Z,97712.84
2019-05-11T18:43:37.927Z,97721.58
2019-05-11T18:46:08.464Z,97729.92
2019-05-11T18:48:38.087Z,97731.19
2019-05-11T18:51:08.689Z,97733.16
2019-05-11T18:53:36.857Z,97742.63
2019-05-11T18:56:08.664Z,97756.28
2019-05-11T18:58:38.382Z,97757.39
2019-05-11T19:01:06.895Z,97760.08
2019-05-11T19:03:35.391Z,97776.82
2019-05-11T19:06:03.809Z,97775.14
2019-05-11T19:08:32.234Z,97785.87
2019-05-11T19:11:00.613Z,97788.59
2019-05-11T19:13:28.951Z,97797.72
2019-05-11T19:15:58.332Z,97803.46
2019-05-11T19:18:28.210Z,97810.24
2019-05-11T19:20:58.586Z,97816.59
2019-05-11T19:23:28.634Z,97817.95
2019-05-11T19:25:57.867Z,97822.00
2019-05-11T19:28:28.088Z,97832.24
2019-05-11T19:30:58.965Z,97839.34
2019-05-11T19:33:27.833Z,97847.14
2019-05-11T19:35:58.484Z,97865.06
2019-05-11T19:38:28.069Z,97867.98
2019-05-11T19:40:58.780Z,97870.44
2019-05-11T19:43:27.688Z,97877.59
2019-05-11T19:45:58.184Z,97880.09
2019-05-11T19:48:28.037Z,97887.66
2019-05-11T19:51:04.585Z,97893.43
2019-05-11T19:53:28.053Z,97895.05
2019-05-11T19:55:58.404Z,97912.17
2019-05-11T19:58:29.055Z,97915.49
2019-05-11T20:00:58.035Z,97921.56
2019-05-11T20:03:28.550Z,97925.30
2019-05-11T20:05:58.069Z,97929.31
2019-05-11T20:08:28.858Z,97940.38
2019-05-11T20:10:56.737Z,97948.53
2019-05-11T20:13:25.191Z,97951.50
2019-05-11T20:15:53.695Z,97961.44
2019-05-11T20:18:22.092Z,97955.25
2019-05-11T20:20:50.489Z,97958.50
2019-05-11T20:23:19.026Z,97965.55
2019-05-11T20:25:47.850Z,97971.53
2019-05-11T20:28:18.291Z,97979.06
2019-05-11T20:30:48.263Z,97968.88
2019-05-11T20:33:18.759Z,97989.04
2019-05-11T20:35:48.663Z,97989.84
2019-05-11T20:38:18.806Z,97987.69
2019-05-11T20:40:48.456Z,97985.55
2019-05-11T20:43:18.524Z,97992.36
2019-05-11T20:45:48.648Z,97988.55
2019-05-11T20:48:18.502Z,97994.52
2019-05-11T20:50:48.372Z,97998.54
2019-05-11T20:53:18.053Z,98002.27
2019-05-11T20:55:47.891Z,98008.40
2019-05-11T20:58:18.799Z,98011.87
2019-05-11T21:00:48.463Z,98017.80
2019-05-11T21:03:16.689Z,98015.98
2019-05-11T21:05:45.093Z,98033.20
2019-05-11T21:08:13.483Z,98032.67
2019-05-11T21:10:42.740Z,98039.70
2019-05-11T21:13:11.376Z,98040.55
2019-05-11T21:15:39.738Z,98036.28
2019-05-11T21:18:08.100Z,98039.77
2019-05-11T21:20:38.022Z,98043.02
2019-05-11T21:23:08.246Z,98057.23
2019-05-11T21:25:37.814Z,98066.91
2019-05-11T21:28:08.305Z,98074.42
2019-05-11T21:30:39.654Z,98070.66
2019-05-11T21:33:08.644Z,98077.92
2019-05-11T21:35:38.591Z,98082.27
2019-05-11T21:38:07.134Z,98097.56
2019-05-11T21:40:37.936Z,98094.61
2019-05-11T21:43:05.756Z,98101.59
2019-05-11T21:45:34.061Z,98107.50
2019-05-11T21:48:02.560Z,98112.60
2019-05-11T21:50:30.868Z,98106.97
2019-05-11T21:52:59.279Z,98113.41
2019-05-11T21:55:29.329Z,98123.88
2019-05-11T21:57:58.260Z,98126.52
2019-05-11T22:00:28.876Z,98129.48
2019-05-11T22:02:57.446Z,98138.33
2019-05-11T22:05:25.868Z,98145.61
2019-05-11T22:07:54.247Z,98141.86
2019-05-11T22:10:22.662Z,98148.57
2019-05-11T22:12:50.973Z,98149.64
2019-05-11T22:15:19.428Z,98152.59
2019-05-11T22:17:48.231Z,98153.12
2019-05-11T22:20:18.369Z,98160.65
2019-05-11T22:22:47.610Z,98170.31
2019-05-11T22:25:18.288Z,98172.19
2019-05-11T22:27:48.528Z,98171.11
2019-05-11T22:30:19.623Z,98179.41
2019-05-11T22:32:48.086Z,98186.40
2019-05-11T22:35:18.392Z,98188.00
2019-05-11T22:37:48.760Z,98191.80
2019-05-11T22:40:16.940Z,98196.61
2019-05-11T22:42:45.312Z,98202.78
2019-05-11T22:45:14.051Z,98201.95
2019-05-11T22:47:42.414Z,98207.61
2019-05-11T22:50:11.361Z,98206.81
2019-05-11T22:52:40.728Z,98212.19
2019-05-11T22:55:12.017Z,98217.03
2019-05-11T22:57:40.447Z,98216.22
2019-05-11T23:00:10.159Z,98211.36
2019-05-11T23:02:38.982Z,98215.15
2019-05-11T23:05:08.715Z,98218.36
2019-05-11T23:07:41.205Z,98216.75
2019-05-11T23:10:08.884Z,98223.73
2019-05-11T23:12:38.250Z,98218.63
2019-05-11T23:15:14.586Z,98229.09
2019-05-11T23:17:43.182Z,98236.62
2019-05-11T23:20:11.872Z,98234.16
2019-05-11T23:22:57.914Z,98232.01
2019-05-11T23:25:19.245Z,98238.73
2019-05-11T23:27:48.628Z,98241.94
2019-05-11T23:30:19.738Z,98242.48
2019-05-11T23:32:49.082Z,98246.50
2019-05-11T23:35:18.842Z,98242.73
2019-05-11T23:37:49.347Z,98249.20
2019-05-11T23:40:18.859Z,98250.81
2019-05-11T23:42:49.004Z,98259.66
2019-05-11T23:45:18.980Z,98258.30
2019-05-11T23:47:48.836Z,98259.38
2019-05-11T23:50:19.467Z,98258.58
2019-05-11T23:52:58.007Z,98257.23
2019-05-11T23:55:19.361Z,98260.72
2019-05-11T23:57:48.724Z,98258.33
